Time;durP1;ratioP1;P1;durP2;ratioP2;P2;SDS_P1;SDS_P2;PMS_P1;PMS_P2;Temp;Humidity;BMP_temperature;BMP_pressure;BME280_temperature;BME280_humidity;BME280_pressure;Samples;Min_cycle;Max_cycle;Signal;HPM_P1;HPM_P2
2023/03/03 00:05:02;;;;;;;5.22;2.75;;;19.40;57.30;;;;;;4717538;29;90621;-86
2023/03/03 00:07:27;;;;;;;2.85;2.38;;;19.40;57.30;;;;;;4741530;29;89563;-86
2023/03/03 00:09:53;;;;;;;2.88;2.47;;;19.30;57.20;;;;;;4741611;29;91345;-86
2023/03/03 00:12:29;;;;;;;4.38;2.80;;;19.30;57.40;;;;;;4755493;29;87369;-86
2023/03/03 00:14:55;;;;;;;2.90;2.25;;;19.30;57.30;;;;;;4742371;29;87796;-86
2023/03/03 00:17:29;;;;;;;4.43;3.17;;;19.30;57.40;;;;;;4743173;29;88796;-86
2023/03/03 00:19:55;;;;;;;3.53;2.63;;;19.30;57.40;;;;;;4742217;29;89133;-86
2023/03/03 00:22:35;;;;;;;3.35;2.60;;;19.20;57.30;;;;;;4743181;29;87691;-86
2023/03/03 00:25:29;;;;;;;3.97;2.78;;;19.20;57.50;;;;;;4743976;29;87652;-86
2023/03/03 00:27:55;;;;;;;4.35;2.88;;;19.20;57.50;;;;;;4748249;29;95687;-86
2023/03/03 00:30:25;;;;;;;3.60;2.42;;;19.20;57.40;;;;;;4743905;29;88825;-86
2023/03/03 00:32:53;;;;;;;3.15;2.47;;;19.20;57.50;;;;;;4740472;29;88552;-86
2023/03/03 00:39:34;;;;;;;3.47;2.65;;;19.20;57.50;;;;;;4742495;29;87311;-86
2023/03/03 00:42:03;;;;;;;2.70;2.40;;;19.10;57.40;;;;;;4742016;29;88173;-86
2023/03/03 00:44:54;;;;;;;4.17;2.63;;;19.10;57.30;;;;;;4742206;29;87637;-86
2023/03/03 00:47:27;;;;;;;3.38;2.55;;;19.10;57.40;;;;;;4742002;29;87436;-86
2023/03/03 00:49:59;;;;;;;4.47;2.78;;;19.10;57.50;;;;;;4741037;29;89463;-86
2023/03/03 00:52:27;;;;;;;3.80;2.97;;;19.10;57.50;;;;;;4743882;29;87767;-86
2023/03/03 00:54:53;;;;;;;3.03;2.60;;;19.00;57.50;;;;;;4743907;29;87205;-86
2023/03/03 00:57:19;;;;;;;5.03;2.78;;;19.00;57.50;;;;;;4742034;29;87519;-86
2023/03/03 00:59:45;;;;;;;3.20;2.60;;;19.00;57.50;;;;;;4744804;29;89380;-85
2023/03/03 01:02:10;;;;;;;5.63;2.63;;;19.00;57.50;;;;;;4742711;29;89400;-86
2023/03/03 01:07:59;;;;;;;3.63;2.72;;;18.90;57.50;;;;;;4725804;29;86966;-86
2023/03/03 01:10:27;;;;;;;4.82;3.30;;;19.00;57.60;;;;;;4742454;29;88786;-86
2023/03/03 01:12:53;;;;;;;4.35;2.80;;;18.90;57.60;;;;;;4742071;29;87890;-86
2023/03/03 01:15:19;;;;;;;3.55;2.50;;;19.00;57.60;;;;;;4742558;29;87341;-86
2023/03/03 01:17:47;;;;;;;3.25;2.40;;;18.90;57.50;;;;;;4742429;29;87219;-86
2023/03/03 01:20:14;;;;;;;4.10;2.85;;;18.90;57.40;;;;;;4741330;29;88703;-86
2023/03/03 01:22:40;;;;;;;3.47;2.67;;;18.90;57.50;;;;;;4742361;29;88210;-86
2023/03/03 01:25:06;;;;;;;4.78;2.90;;;18.90;57.60;;;;;;4742313;29;87965;-85
2023/03/03 01:27:33;;;;;;;3.90;2.67;;;18.90;57.50;;;;;;4741648;29;87565;-86
2023/03/03 01:36:55;;;;;;;4.78;3.50;;;18.80;57.30;;;;;;4742180;29;87503;-86
2023/03/03 01:39:21;;;;;;;3.60;2.83;;;18.80;57.50;;;;;;4741086;29;89628;-86
2023/03/03 01:41:47;;;;;;;4.05;2.70;;;18.80;57.60;;;;;;4739053;29;89908;-86
2023/03/03 01:44:16;;;;;;;3.60;3.05;;;18.80;57.40;;;;;;4741292;29;88194;-86
2023/03/03 01:47:31;;;;;;;3.38;2.78;;;18.80;57.60;;;;;;4754878;29;87259;-86
2023/03/03 01:50:05;;;;;;;3.38;2.67;;;18.80;57.40;;;;;;4694654;30;88498;-86
2023/03/03 02:02:36;;;;;;;4.63;3.25;;;18.70;57.40;;;;;;4692732;30;87549;-86
2023/03/03 02:05:02;;;;;;;5.82;3.67;;;18.70;57.40;;;;;;4676360;30;90271;-86
2023/03/03 02:07:30;;;;;;;3.08;2.70;;;18.70;57.40;;;;;;4667626;30;88354;-86
2023/03/03 02:10:03;;;;;;;3.05;2.67;;;18.70;57.30;;;;;;4677721;30;87339;-86
2023/03/03 02:12:53;;;;;;;4.75;3.30;;;18.70;57.30;;;;;;4676685;30;89497;-86
2023/03/03 02:15:23;;;;;;;4.10;3.03;;;18.70;57.50;;;;;;4644420;30;88722;-85
2023/03/03 02:17:53;;;;;;;4.28;3.08;;;18.60;57.20;;;;;;4653287;30;87955;-86
2023/03/03 02:20:30;;;;;;;3.53;2.80;;;18.70;57.40;;;;;;4661628;30;88426;-86
2023/03/03 02:26:26;;;;;;;4.40;3.33;;;18.60;57.40;;;;;;4679587;30;87551;-86
2023/03/03 02:28:51;;;;;;;3.78;2.88;;;18.60;57.40;;;;;;4679448;30;88609;-86
2023/03/03 02:31:21;;;;;;;3.72;2.88;;;18.60;57.30;;;;;;4679846;30;87243;-85
2023/03/03 02:33:49;;;;;;;4.05;3.20;;;18.60;57.30;;;;;;4680395;30;87188;-86
2023/03/03 02:36:21;;;;;;;4.10;3.17;;;18.60;57.10;;;;;;4699665;29;87676;-86
2023/03/03 02:52:13;;;;;;;4.13;3.20;;;18.50;57.20;;;;;;4725681;29;92437;-86
2023/03/03 02:54:41;;;;;;;3.78;2.97;;;18.50;57.00;;;;;;4744873;29;87323;-86
2023/03/03 02:57:07;;;;;;;4.93;3.38;;;18.50;57.10;;;;;;4741259;29;88979;-86
2023/03/03 02:59:33;;;;;;;4.72;3.17;;;18.50;57.20;;;;;;4748893;29;92211;-86
2023/03/03 03:02:08;;;;;;;4.50;3.38;;;18.50;57.20;;;;;;4742583;29;87895;-86
2023/03/03 03:04:34;;;;;;;4.78;3.45;;;18.50;57.30;;;;;;4734525;29;87457;-86
2023/03/03 03:07:00;;;;;;;5.95;3.58;;;18.50;57.20;;;;;;4744261;29;86407;-86
2023/03/03 03:09:27;;;;;;;4.45;3.80;;;18.50;57.30;;;;;;4743681;29;88628;-86
2023/03/03 03:11:52;;;;;;;4.50;3.67;;;18.50;57.20;;;;;;4742530;29;87827;-86
2023/03/03 03:14:18;;;;;;;4.07;3.25;;;18.50;57.20;;;;;;4742109;29;88399;-86
2023/03/03 03:20:07;;;;;;;3.95;3.13;;;18.40;57.00;;;;;;4744179;29;87273;-86
2023/03/03 03:22:33;;;;;;;4.65;3.72;;;18.40;57.10;;;;;;4748673;29;92891;-86
2023/03/03 03:24:59;;;;;;;4.43;3.38;;;18.40;56.90;;;;;;4744252;29;87364;-86
2023/03/03 03:27:24;;;;;;;4.93;3.75;;;18.40;56.90;;;;;;4755576;29;88858;-85
2023/03/03 03:29:50;;;;;;;5.13;3.80;;;18.40;57.10;;;;;;4743481;29;88823;-86
2023/03/03 03:32:16;;;;;;;6.88;3.97;;;18.40;57.10;;;;;;4744021;29;87790;-86
2023/03/03 03:34:42;;;;;;;4.25;3.40;;;18.40;57.10;;;;;;4742747;29;87940;-86
2023/03/03 03:37:08;;;;;;;4.57;3.33;;;18.30;57.00;;;;;;4743430;29;87297;-86
2023/03/03 03:39:34;;;;;;;4.35;3.67;;;18.30;57.10;;;;;;4742977;29;89351;-86
2023/03/03 03:42:00;;;;;;;4.80;3.67;;;18.30;57.20;;;;;;4742056;29;89611;-86
2023/03/03 03:44:46;;;;;;;5.78;3.92;;;18.30;57.20;;;;;;4742725;29;87606;-86
2023/03/03 03:47:12;;;;;;;4.97;4.13;;;18.30;57.10;;;;;;4743100;29;87107;-86
2023/03/03 03:49:37;;;;;;;5.88;3.90;;;18.30;57.10;;;;;;4743099;29;88532;-86
2023/03/03 03:52:03;;;;;;;4.78;3.50;;;18.30;57.10;;;;;;4744382;29;88881;-86
2023/03/03 03:54:29;;;;;;;3.47;3.17;;;18.30;57.10;;;;;;4742928;29;87192;-86
2023/03/03 03:56:54;;;;;;;5.65;3.92;;;18.30;57.10;;;;;;4743390;29;87703;-86
2023/03/03 04:13:30;;;;;;;4.70;3.60;;;18.30;57.00;;;;;;4729281;29;91822;-86
2023/03/03 04:15:56;;;;;;;6.20;4.30;;;18.20;57.00;;;;;;4743026;29;88923;-86
2023/03/03 04:18:22;;;;;;;4.35;3.70;;;18.20;57.00;;;;;;4743101;29;87705;-86
2023/03/03 04:20:48;;;;;;;5.07;4.00;;;18.20;57.00;;;;;;4742577;29;87524;-86
2023/03/03 04:26:41;;;;;;;5.75;4.25;;;18.20;57.00;;;;;;4743650;29;87001;-86
2023/03/03 04:29:07;;;;;;;4.80;4.00;;;18.20;57.10;;;;;;4741983;29;87019;-86
2023/03/03 04:31:32;;;;;;;5.10;3.97;;;18.10;57.00;;;;;;4742105;29;87567;-86
2023/03/03 04:33:58;;;;;;;5.65;4.32;;;18.10;57.10;;;;;;4742914;29;88351;-86
2023/03/03 04:36:24;;;;;;;5.30;4.30;;;18.20;56.90;;;;;;4741532;29;88125;-86
2023/03/03 04:52:17;;;;;;;7.53;4.18;;;18.10;56.90;;;;;;4740709;29;86942;-86
2023/03/03 04:54:43;;;;;;;5.10;3.95;;;18.10;56.90;;;;;;4744491;29;87385;-86
2023/03/03 04:57:09;;;;;;;6.72;4.20;;;18.10;57.00;;;;;;4741170;29;87387;-86
2023/03/03 04:59:35;;;;;;;5.30;4.35;;;18.10;57.10;;;;;;4742047;29;89070;-85
2023/03/03 05:05:23;;;;;;;5.38;4.07;;;18.10;57.10;;;;;;4738570;29;86984;-84
2023/03/03 05:07:48;;;;;;;5.80;4.47;;;18.10;57.20;;;;;;4737629;29;88513;-86
2023/03/03 05:10:14;;;;;;;4.93;4.20;;;18.10;57.10;;;;;;4729238;29;87653;-86
2023/03/03 05:12:40;;;;;;;5.47;4.43;;;18.00;57.10;;;;;;4738784;29;87390;-84
2023/03/03 05:15:06;;;;;;;5.55;4.35;;;18.00;57.00;;;;;;4741170;29;87113;-86
2023/03/03 05:17:32;;;;;;;5.15;4.32;;;18.00;57.10;;;;;;4739597;29;90834;-86
2023/03/03 05:19:58;;;;;;;6.97;3.97;;;18.00;57.10;;;;;;4742247;29;88300;-84
2023/03/03 05:22:24;;;;;;;5.40;4.78;;;18.00;57.00;;;;;;4742112;29;87652;-86
2023/03/03 05:34:55;;;;;;;7.35;4.68;;;18.00;57.00;;;;;;4741901;29;87534;-86
2023/03/03 05:37:23;;;;;;;8.60;6.00;;;18.00;56.80;;;;;;4748195;29;90835;-85
2023/03/03 05:39:49;;;;;;;6.20;5.00;;;18.00;56.10;;;;;;4755828;29;90809;-85
2023/03/03 05:42:14;;;;;;;5.93;4.47;;;18.00;56.40;;;;;;4740517;29;87779;-84
2023/03/03 05:48:09;;;;;;;5.22;4.20;;;18.10;56.30;;;;;;4742666;29;86696;-86
2023/03/03 05:50:35;;;;;;;6.00;5.07;;;18.30;56.30;;;;;;4745091;29;88588;-84
2023/03/03 05:53:01;;;;;;;6.50;4.80;;;18.50;56.90;;;;;;4744948;29;87900;-84
2023/03/03 05:55:27;;;;;;;8.13;5.18;;;18.70;56.60;;;;;;4742621;29;88521;-86
2023/03/03 05:57:53;;;;;;;5.53;4.68;;;18.80;56.30;;;;;;4778020;29;91095;-85
2023/03/03 06:03:40;;;;;;;6.10;4.80;;;19.10;55.50;;;;;;4778182;29;90376;-86
2023/03/03 06:06:07;;;;;;;5.25;4.43;;;19.30;55.30;;;;;;4777733;29;87438;-86
2023/03/03 06:08:33;;;;;;;5.85;4.50;;;19.40;55.00;;;;;;4777097;29;87107;-86
2023/03/03 06:10:59;;;;;;;13.13;4.70;;;19.50;55.00;;;;;;4777425;29;88649;-85
2023/03/03 06:13:26;;;;;;;5.25;4.55;;;19.60;54.90;;;;;;4778973;29;88929;-85
2023/03/03 06:15:51;;;;;;;6.43;4.20;;;19.60;54.60;;;;;;4779234;29;87413;-86
2023/03/03 06:18:17;;;;;;;6.07;4.78;;;19.70;54.50;;;;;;4778104;29;87036;-86
2023/03/03 06:20:43;;;;;;;5.72;4.30;;;19.70;54.50;;;;;;4777750;29;90110;-86
2023/03/03 06:23:08;;;;;;;7.18;4.55;;;19.60;54.30;;;;;;4779031;29;89038;-85
2023/03/03 06:25:34;;;;;;;6.78;4.32;;;19.60;54.20;;;;;;4778976;29;87025;-86
2023/03/03 06:38:10;;;;;;;7.45;5.38;;;19.40;54.50;;;;;;4744431;29;87340;-86
2023/03/03 06:40:36;;;;;;;5.57;4.28;;;19.30;54.50;;;;;;4744916;29;87346;-85
2023/03/03 06:43:03;;;;;;;5.65;4.22;;;19.30;54.50;;;;;;4743751;29;88483;-85
2023/03/03 06:45:28;;;;;;;6.65;4.53;;;19.20;54.50;;;;;;4744416;29;87478;-85
2023/03/03 06:47:54;;;;;;;5.30;4.20;;;19.20;54.70;;;;;;4742051;29;88436;-85
2023/03/03 06:50:20;;;;;;;6.38;4.43;;;19.10;54.70;;;;;;4744556;29;87537;-85
2023/03/03 06:56:26;;;;;;;5.47;4.13;;;19.00;55.00;;;;;;4743992;29;87835;-84
2023/03/03 06:58:57;;;;;;;6.10;4.68;;;19.00;54.80;;;;;;4756507;29;87539;-85
2023/03/03 07:01:23;;;;;;;7.93;4.45;;;19.00;55.30;;;;;;4742371;29;87608;-84
2023/03/03 07:03:49;;;;;;;6.38;4.40;;;18.80;55.00;;;;;;4745045;29;88139;-84
2023/03/03 07:09:27;;;;;;;8.70;5.45;;;18.80;55.20;;;;;;4743695;29;87441;-84
2023/03/03 07:12:01;;;;;;;5.95;4.30;;;18.90;55.10;;;;;;4743045;29;88541;-87
2023/03/03 07:14:28;;;;;;;7.65;4.57;;;19.00;54.90;;;;;;4741958;29;89912;-83
2023/03/03 07:17:00;;;;;;;7.00;4.57;;;19.20;54.70;;;;;;4742461;29;89397;-84
2023/03/03 07:19:35;;;;;;;6.15;4.43;;;19.20;54.80;;;;;;4743977;29;87290;-84
2023/03/03 07:22:24;;;;;;;11.05;5.18;;;19.30;54.60;;;;;;4745189;29;88591;-85
2023/03/03 07:24:52;;;;;;;9.07;4.63;;;19.50;54.40;;;;;;4696264;30;93718;-85
2023/03/03 07:27:18;;;;;;;7.17;4.83;;;19.60;54.70;;;;;;4695740;30;91976;-84
2023/03/03 07:29:47;;;;;;;6.75;4.40;;;19.60;54.00;;;;;;4696973;30;87641;-84
2023/03/03 07:32:43;;;;;;;12.30;7.13;;;19.70;54.10;;;;;;4697135;30;87168;-84
2023/03/03 07:35:37;;;;;;;14.02;7.07;;;19.70;52.00;;;;;;4696204;30;88034;-85
2023/03/03 07:38:16;;;;;;;10.57;5.95;;;19.60;51.80;;;;;;4697171;30;87122;-84
2023/03/03 07:40:49;;;;;;;;;;;19.60;53.10;;;;;;4696467;30;88552;-84
2023/03/03 07:43:37;;;;;;;9.35;6.03;;;19.50;55.00;;;;;;4697863;30;87821;-84
2023/03/03 07:46:08;;;;;;;12.90;7.55;;;19.40;56.60;;;;;;4696261;30;88496;-84
2023/03/03 07:48:38;;;;;;;14.15;7.28;;;19.40;57.20;;;;;;4696531;30;92619;-85
2023/03/03 07:51:40;;;;;;;14.48;7.88;;;19.30;57.90;;;;;;4710893;29;87566;-84
2023/03/03 07:54:39;;;;;;;11.95;7.10;;;19.20;58.30;;;;;;4652627;30;87605;-85
2023/03/03 07:57:10;;;;;;;13.23;6.37;;;19.30;56.80;;;;;;4637653;30;90587;-84
2023/03/03 07:59:37;;;;;;;12.45;7.05;;;19.30;56.50;;;;;;4653233;30;89033;-85
2023/03/03 08:02:22;;;;;;;9.40;6.60;;;19.20;56.50;;;;;;4671439;30;87651;-84
2023/03/03 08:04:51;;;;;;;11.07;6.15;;;19.30;56.60;;;;;;4679252;30;90165;-84
2023/03/03 08:07:18;;;;;;;12.20;6.90;;;19.30;56.70;;;;;;4677582;30;89082;-84
2023/03/03 08:09:49;;;;;;;10.55;6.35;;;19.30;56.70;;;;;;4694239;30;89339;-83
2023/03/03 08:12:23;;;;;;;11.77;6.93;;;19.30;56.60;;;;;;4687594;30;87089;-84
2023/03/03 08:14:51;;;;;;;12.45;8.20;;;19.40;56.10;;;;;;4684249;30;87417;-84
2023/03/03 08:17:26;;;;;;;15.15;6.95;;;19.50;55.40;;;;;;4688278;30;87870;-85
2023/03/03 08:19:54;;;;;;;10.57;7.05;;;19.60;55.60;;;;;;4686311;30;87845;-83
2023/03/03 08:22:41;;;;;;;11.70;6.18;;;19.70;55.50;;;;;;4687112;30;87263;-83
2023/03/03 08:25:07;;;;;;;8.55;5.47;;;19.70;55.50;;;;;;4687882;30;87285;-83
2023/03/03 08:34:43;;;;;;;11.18;6.03;;;19.60;55.70;;;;;;4739615;29;88378;-82
2023/03/03 08:37:09;;;;;;;9.82;6.07;;;19.60;55.10;;;;;;4742298;29;87487;-83
2023/03/03 08:39:35;;;;;;;11.00;6.63;;;19.50;55.40;;;;;;4748905;29;91503;-83
2023/03/03 08:42:00;;;;;;;11.00;6.50;;;19.50;55.40;;;;;;4742233;29;87076;-82
2023/03/03 08:44:26;;;;;;;9.75;6.22;;;19.50;55.20;;;;;;4741651;29;87515;-84
2023/03/03 08:50:14;;;;;;;9.93;6.43;;;19.40;55.60;;;;;;4741142;29;87422;-84
2023/03/03 08:52:40;;;;;;;14.38;6.13;;;19.40;55.50;;;;;;4742986;29;87452;-84
2023/03/03 08:55:06;;;;;;;12.02;5.75;;;19.40;55.50;;;;;;4742138;29;87168;-83
2023/03/03 08:57:32;;;;;;;9.90;6.45;;;19.50;55.50;;;;;;4741288;29;90439;-84
2023/03/03 08:59:58;;;;;;;9.60;6.20;;;19.50;55.50;;;;;;4741307;29;89005;-83
2023/03/03 09:02:23;;;;;;;10.10;5.85;;;19.60;55.40;;;;;;4741253;29;89251;-83
2023/03/03 09:04:54;;;;;;;9.23;5.45;;;19.60;55.20;;;;;;4737393;29;87176;-84
2023/03/03 09:07:20;;;;;;;9.98;5.40;;;19.70;55.20;;;;;;4750687;29;87392;-83
2023/03/03 09:09:46;;;;;;;8.57;4.82;;;19.70;55.20;;;;;;4742728;29;88535;-83
2023/03/03 09:12:18;;;;;;;10.10;5.75;;;19.70;55.20;;;;;;4739943;29;89939;-82
2023/03/03 09:14:48;;;;;;;11.07;6.10;;;19.70;55.20;;;;;;4747309;29;87052;-83
2023/03/03 09:17:43;;;;;;;11.18;5.97;;;19.70;55.30;;;;;;4742704;29;87842;-83
2023/03/03 09:20:34;;;;;;;7.82;5.72;;;19.60;55.30;;;;;;4670546;30;88722;-82
2023/03/03 09:23:31;;;;;;;9.10;5.55;;;19.60;55.40;;;;;;4684329;30;87491;-82
2023/03/03 09:26:21;;;;;;;9.40;5.72;;;19.50;55.30;;;;;;4671243;30;88627;-81
2023/03/03 09:28:47;;;;;;;7.72;5.60;;;19.50;55.30;;;;;;4685243;30;89899;-81
2023/03/03 09:31:59;;;;;;;8.25;5.38;;;19.40;55.40;;;;;;4685304;30;88933;-81
2023/03/03 09:34:41;;;;;;;7.13;4.93;;;19.40;55.50;;;;;;4687871;30;88303;-82
2023/03/03 09:40:37;;;;;;;8.63;5.00;;;19.50;55.60;;;;;;4688029;30;87531;-82
2023/03/03 09:43:39;;;;;;;8.50;5.05;;;19.60;55.40;;;;;;4678583;30;91267;-82
2023/03/03 09:46:26;;;;;;;8.85;5.22;;;19.60;55.20;;;;;;4687922;30;92641;-82
2023/03/03 09:49:18;;;;;;;8.55;5.15;;;19.70;55.20;;;;;;4693430;30;87066;-82
2023/03/03 09:52:07;;;;;;;7.80;4.90;;;19.70;55.00;;;;;;4685883;30;91895;-81
2023/03/03 09:54:35;;;;;;;9.40;6.22;;;19.60;54.80;;;;;;4687191;30;93976;-81
2023/03/03 09:57:18;;;;;;;8.60;6.15;;;19.60;54.50;;;;;;4712397;29;88435;-82
2023/03/03 09:59:59;;;;;;;9.00;5.60;;;19.60;54.30;;;;;;4735075;29;87029;-83
2023/03/03 10:02:43;;;;;;;9.75;6.32;;;19.50;54.60;;;;;;4741251;29;87479;-81
2023/03/03 10:05:19;;;;;;;10.00;6.35;;;19.50;54.50;;;;;;4741118;29;88311;-83
2023/03/03 10:11:27;;;;;;;8.48;5.95;;;19.40;54.70;;;;;;4741387;29;87581;-84
2023/03/03 10:14:11;;;;;;;8.82;5.63;;;19.40;54.80;;;;;;4741552;29;87541;-84
2023/03/03 10:16:48;;;;;;;8.32;5.75;;;19.40;55.00;;;;;;4740946;29;88134;-82
2023/03/03 10:19:52;;;;;;;8.52;5.55;;;19.40;54.90;;;;;;4741551;29;87984;-83
2023/03/03 10:22:41;;;;;;;8.50;5.65;;;19.50;54.90;;;;;;4739978;29;87883;-83
2023/03/03 10:45:37;;;;;;;7.35;5.25;;;19.70;54.10;;;;;;4743836;29;86463;-84
2023/03/03 10:48:40;;;;;;;9.00;5.07;;;19.70;54.30;;;;;;4744918;29;87102;-84
2023/03/03 10:51:18;;;;;;;7.63;5.07;;;19.60;54.30;;;;;;4743659;29;87696;-83
2023/03/03 11:01:08;;;;;;;7.35;5.07;;;19.60;54.00;;;;;;4742329;29;87524;-83
2023/03/03 11:04:25;;;;;;;10.07;5.68;;;19.70;54.30;;;;;;4744954;29;91778;-83
2023/03/03 11:07:05;;;;;;;7.10;5.03;;;19.70;54.30;;;;;;4678859;30;93110;-83
2023/03/03 11:09:46;;;;;;;7.75;5.45;;;19.70;54.40;;;;;;4679213;30;92739;-82
2023/03/03 11:12:35;;;;;;;6.15;4.60;;;19.70;54.60;;;;;;4679257;30;87199;-83
2023/03/03 11:15:24;;;;;;;7.53;5.35;;;19.70;54.60;;;;;;4670799;30;90708;-84
2023/03/03 11:18:16;;;;;;;7.30;5.40;;;19.70;54.80;;;;;;4678231;30;88866;-83
2023/03/03 11:20:44;;;;;;;10.02;5.70;;;19.70;55.10;;;;;;4678593;30;88186;-83
2023/03/03 11:23:37;;;;;;;7.00;5.78;;;19.70;55.10;;;;;;4663529;30;88810;-83
2023/03/03 11:26:27;;;;;;;13.27;6.75;;;19.60;55.30;;;;;;4678478;30;87163;-84
2023/03/03 11:28:55;;;;;;;9.65;5.78;;;19.70;55.30;;;;;;4663858;30;90287;-83
2023/03/03 11:31:32;;;;;;;8.50;5.40;;;19.80;55.00;;;;;;4679080;30;87830;-84
2023/03/03 11:34:16;;;;;;;7.85;5.25;;;19.80;55.20;;;;;;4679309;30;87567;-83
2023/03/03 11:36:54;;;;;;;8.40;5.53;;;19.90;55.60;;;;;;4678986;30;91864;-83
2023/03/03 11:39:26;;;;;;;6.72;4.85;;;20.00;55.00;;;;;;4678064;30;88982;-84
2023/03/03 11:42:27;;;;;;;6.20;4.97;;;20.10;54.60;;;;;;4693078;29;87359;-84
2023/03/03 11:45:02;;;;;;;8.25;5.70;;;20.20;54.40;;;;;;4691509;30;86993;-83
2023/03/03 11:47:50;;;;;;;7.55;5.25;;;20.20;54.10;;;;;;4695170;30;87121;-83
2023/03/03 11:50:44;;;;;;;10.45;5.97;;;20.30;54.10;;;;;;4674333;30;91473;-83
2023/03/03 11:53:36;;;;;;;11.57;5.72;;;20.30;53.80;;;;;;4659791;30;89591;-83
2023/03/03 11:56:26;;;;;;;8.35;5.47;;;20.40;53.60;;;;;;4659929;30;87938;-82
2023/03/03 11:58:54;;;;;;;;;;;20.30;53.90;;;;;;4661048;30;87310;-82
2023/03/03 12:08:43;;;;;;;9.07;4.70;;;20.10;54.10;;;;;;4660076;30;87221;-82
2023/03/03 12:11:17;;;;;;;9.07;5.60;;;20.00;54.10;;;;;;4660427;30;88953;-81
2023/03/03 12:14:00;;;;;;;11.07;6.80;;;20.00;54.30;;;;;;4659933;30;88330;-81
2023/03/03 12:16:48;;;;;;;7.72;5.13;;;20.00;54.20;;;;;;4660846;30;87655;-82
2023/03/03 12:19:37;;;;;;;9.48;5.82;;;20.00;54.10;;;;;;4674392;30;87954;-81
2023/03/03 12:22:38;;;;;;;8.95;5.82;;;20.00;53.70;;;;;;4697077;29;87476;-82
2023/03/03 12:25:25;;;;;;;7.57;5.35;;;20.00;53.80;;;;;;4731425;29;93845;-82
2023/03/03 12:28:04;;;;;;;9.63;6.30;;;20.00;53.50;;;;;;4724190;29;88321;-84
2023/03/03 12:31:06;;;;;;;13.07;7.10;;;20.00;53.50;;;;;;4722642;29;87318;-83
2023/03/03 12:33:55;;;;;;;7.35;5.43;;;20.00;53.50;;;;;;4723177;29;91811;-82
2023/03/03 12:36:45;;;;;;;9.00;5.35;;;20.10;53.00;;;;;;4722782;29;88551;-83
2023/03/03 12:40:07;;;;;;;7.43;5.22;;;20.20;53.00;;;;;;4714246;29;90807;-84
2023/03/03 12:42:57;;;;;;;6.65;4.65;;;20.20;53.00;;;;;;4669235;30;87958;-83
2023/03/03 12:45:28;;;;;;;7.50;4.85;;;20.20;53.40;;;;;;4668555;30;87661;-84
2023/03/03 12:48:13;;;;;;;6.78;4.63;;;20.20;54.20;;;;;;4664722;30;89517;-84
2023/03/03 12:50:57;;;;;;;9.80;6.60;;;20.20;53.40;;;;;;4665807;30;89182;-83
2023/03/03 12:53:51;;;;;;;11.25;7.68;;;20.10;52.40;;;;;;4665378;30;87710;-84
2023/03/03 12:56:32;;;;;;;11.20;7.00;;;20.10;52.30;;;;;;4666935;30;88100;-84
2023/03/03 12:59:10;;;;;;;14.93;8.05;;;20.10;52.00;;;;;;4671623;30;88482;-84
2023/03/03 13:01:38;;;;;;;12.82;7.43;;;20.00;52.00;;;;;;4684250;30;88525;-84
2023/03/03 13:04:19;;;;;;;13.87;8.10;;;20.10;52.60;;;;;;4686264;30;87061;-84
2023/03/03 13:07:17;;;;;;;13.55;7.45;;;20.00;52.80;;;;;;4686989;30;92743;-84
2023/03/03 13:09:50;;;;;;;10.40;7.13;;;20.10;52.60;;;;;;4686339;30;92835;-84
2023/03/03 13:16:08;;;;;;;12.00;7.22;;;20.20;52.50;;;;;;4724660;29;88273;-84
2023/03/03 13:18:54;;;;;;;11.85;7.22;;;20.30;52.60;;;;;;4742843;29;87516;-85
2023/03/03 13:21:26;;;;;;;10.77;6.97;;;20.50;52.40;;;;;;4741596;29;88625;-83
2023/03/03 13:24:25;;;;;;;11.88;7.60;;;20.60;51.80;;;;;;4740937;29;88822;-83
2023/03/03 13:26:57;;;;;;;12.43;7.35;;;20.70;51.50;;;;;;4741904;29;86916;-82
2023/03/03 13:29:50;;;;;;;14.43;8.00;;;20.80;51.40;;;;;;4747973;29;89777;-83
2023/03/03 13:49:30;;;;;;;37.38;13.18;;;20.70;51.70;;;;;;4740833;29;92377;-83
2023/03/03 13:52:06;;;;;;;31.00;11.30;;;20.60;52.10;;;;;;4755101;29;87650;-82
2023/03/03 13:54:59;;;;;;;32.17;11.90;;;20.60;52.40;;;;;;4740017;29;91656;-82
2023/03/03 13:57:46;;;;;;;29.40;12.05;;;20.60;52.50;;;;;;4740788;29;88530;-83
2023/03/03 14:07:22;;;;;;;27.15;11.25;;;20.60;52.60;;;;;;4741181;29;90424;-83
2023/03/03 14:10:08;;;;;;;28.02;12.20;;;20.60;52.70;;;;;;4740359;29;92129;-82
2023/03/03 14:12:53;;;;;;;35.00;12.27;;;20.70;52.70;;;;;;4743763;29;92652;-82
2023/03/03 14:15:19;;;;;;;22.98;10.50;;;20.70;52.80;;;;;;4743505;29;88529;-83
2023/03/03 14:17:52;;;;;;;29.95;11.63;;;20.80;52.60;;;;;;4750374;29;89679;-83
2023/03/03 14:20:21;;;;;;;21.52;10.90;;;20.90;52.50;;;;;;4749725;29;90124;-83
2023/03/03 14:23:00;;;;;;;26.05;10.13;;;21.00;52.50;;;;;;4743838;29;86990;-83
2023/03/03 14:25:46;;;;;;;28.33;10.60;;;21.00;52.40;;;;;;4757743;29;87175;-83
2023/03/03 14:28:14;;;;;;;26.25;10.57;;;21.00;52.50;;;;;;4749146;29;90913;-82
2023/03/03 14:30:44;;;;;;;26.83;11.15;;;20.90;52.50;;;;;;4744921;29;88832;-82
2023/03/03 14:33:10;;;;;;;31.80;11.85;;;21.10;51.70;;;;;;4744446;29;88809;-82
2023/03/03 14:35:50;;;;;;;26.65;10.95;;;21.10;51.70;;;;;;4748113;29;87412;-84
2023/03/03 14:38:22;;;;;;;28.17;10.40;;;21.10;51.90;;;;;;4751483;29;89097;-83
2023/03/03 14:41:01;;;;;;;29.73;10.48;;;21.00;51.90;;;;;;4742232;29;88722;-83
2023/03/03 14:43:38;;;;;;;22.40;10.07;;;21.00;52.10;;;;;;4741974;29;89359;-83
2023/03/03 14:46:32;;;;;;;28.10;11.25;;;21.00;52.40;;;;;;4742385;29;87220;-83
2023/03/03 14:49:04;;;;;;;35.13;13.88;;;21.10;52.00;;;;;;4742875;29;91399;-84
2023/03/03 14:51:44;;;;;;;34.47;13.95;;;21.10;52.10;;;;;;4743838;29;92602;-84
2023/03/03 14:54:26;;;;;;;39.47;15.65;;;21.20;51.90;;;;;;4743352;29;90007;-84
2023/03/03 15:00:20;;;;;;;56.70;18.70;;;21.30;51.30;;;;;;4735868;29;86564;-84
2023/03/03 15:03:01;;;;;;;63.60;20.58;;;21.50;51.50;;;;;;4744118;29;88290;-84
2023/03/03 15:05:29;;;;;;;64.30;20.45;;;21.50;51.10;;;;;;4743639;29;88339;-85
2023/03/03 15:07:56;;;;;;;69.82;19.70;;;21.50;51.30;;;;;;4743918;29;88296;-85
2023/03/03 15:10:47;;;;;;;61.28;21.15;;;21.50;51.40;;;;;;4743189;29;87401;-84
2023/03/03 15:13:18;;;;;;;68.55;22.50;;;21.60;51.70;;;;;;4741637;29;88421;-83
2023/03/03 15:16:15;;;;;;;60.75;21.98;;;21.50;52.00;;;;;;4744224;29;89221;-84
2023/03/03 15:19:17;;;;;;;54.00;19.10;;;21.50;52.20;;;;;;4688387;30;88133;-86
2023/03/03 15:21:59;;;;;;;49.72;18.85;;;21.40;50.50;;;;;;4687170;30;91133;-84
2023/03/03 15:24:40;;;;;;;54.17;19.02;;;21.40;51.30;;;;;;4688267;30;88272;-84
2023/03/03 15:27:18;;;;;;;56.60;20.52;;;21.30;52.20;;;;;;4688301;30;88539;-84
2023/03/03 15:29:56;;;;;;;54.50;19.13;;;21.30;52.50;;;;;;4686026;30;87843;-84
2023/03/03 15:32:40;;;;;;;67.60;18.90;;;21.30;52.60;;;;;;4686080;30;87520;-84
2023/03/03 15:35:26;;;;;;;56.28;20.15;;;21.40;53.00;;;;;;4686033;30;89790;-84
2023/03/03 15:38:30;;;;;;;62.72;20.90;;;21.40;53.10;;;;;;4687184;30;88130;-83
2023/03/03 15:40:59;;;;;;;69.30;23.55;;;21.50;52.70;;;;;;4668788;30;87357;-84
2023/03/03 15:47:19;;;;;;;60.95;21.10;;;21.70;52.50;;;;;;4668947;30;87515;-84
2023/03/03 15:50:10;;;;;;;55.40;20.50;;;21.90;52.70;;;;;;4669328;30;88557;-83
2023/03/03 15:52:54;;;;;;;55.47;19.58;;;22.00;52.50;;;;;;4653784;30;87440;-84
2023/03/03 15:55:53;;;;;;;48.40;18.83;;;22.20;52.60;;;;;;4684949;29;87537;-83
2023/03/03 15:58:41;;;;;;;55.42;19.38;;;22.20;53.00;;;;;;4703507;29;88511;-83
2023/03/03 16:01:25;;;;;;;89.50;21.00;;;22.20;53.30;;;;;;4703732;29;88408;-83
2023/03/03 16:04:13;;;;;;;52.40;19.60;;;22.20;53.20;;;;;;4703129;29;88588;-83
2023/03/03 16:06:59;;;;;;;59.63;20.08;;;22.30;53.40;;;;;;4696230;29;95188;-82
2023/03/03 16:09:28;;;;;;;61.08;19.50;;;22.30;53.10;;;;;;4703920;29;88556;-83
2023/03/03 16:12:01;;;;;;;54.67;17.42;;;22.40;53.30;;;;;;4703036;29;90779;-84
2023/03/03 16:14:35;;;;;;;59.70;20.08;;;22.40;53.30;;;;;;4703003;29;87032;-83
2023/03/03 16:17:10;;;;;;;45.40;16.58;;;22.40;53.90;;;;;;4720833;29;90884;-83
2023/03/03 16:19:52;;;;;;;48.90;16.92;;;22.40;53.70;;;;;;4728511;29;88544;-83
2023/03/03 16:22:43;;;;;;;59.03;17.55;;;22.40;53.90;;;;;;4741303;29;87683;-83
2023/03/03 16:25:30;;;;;;;54.08;17.67;;;22.40;53.80;;;;;;4742065;29;87333;-84
2023/03/03 16:28:07;;;;;;;45.40;17.40;;;22.30;54.20;;;;;;4742503;29;87431;-83
2023/03/03 16:30:55;;;;;;;53.40;17.20;;;22.30;54.40;;;;;;4742356;29;94255;-83
2023/03/03 16:33:34;;;;;;;46.13;17.38;;;22.30;54.40;;;;;;4742356;29;89247;-83
2023/03/03 16:36:20;;;;;;;52.05;17.50;;;22.20;54.40;;;;;;4741784;29;87380;-83
2023/03/03 16:39:29;;;;;;;46.45;16.15;;;22.10;54.60;;;;;;4754879;29;89809;-83
2023/03/03 16:42:20;;;;;;;58.28;18.27;;;22.00;54.80;;;;;;4712357;29;88306;-83
2023/03/03 16:45:29;;;;;;;41.70;15.60;;;22.00;54.60;;;;;;4712893;29;89224;-85
2023/03/03 16:47:54;;;;;;;47.08;17.35;;;22.00;53.60;;;;;;4712529;29;87756;-83